createdAt,value
2023-03-28T00:02:23.762Z,1.30
2023-03-28T00:04:52.745Z,1.73
2023-03-28T00:07:21.707Z,1.33
2023-03-28T00:09:49.388Z,2.00
2023-03-28T00:12:17.077Z,1.73
2023-03-28T00:14:46.260Z,2.40
2023-03-28T00:17:13.731Z,1.87
2023-03-28T00:19:41.416Z,2.60
2023-03-28T00:22:08.547Z,2.00
2023-03-28T00:24:38.867Z,1.73
2023-03-28T00:27:07.194Z,1.63
2023-03-28T00:29:34.815Z,1.60
2023-03-28T00:32:02.011Z,1.40
2023-03-28T00:34:29.151Z,1.80
2023-03-28T00:36:56.653Z,1.87
2023-03-28T00:39:24.360Z,2.20
2023-03-28T00:41:59.026Z,1.40
2023-03-28T00:44:49.484Z,2.00
2023-03-28T00:47:37.885Z,1.80
2023-03-28T00:50:14.414Z,2.00
2023-03-28T00:52:49.743Z,1.50
2023-03-28T00:55:24.656Z,2.47
2023-03-28T00:57:54.521Z,1.30
2023-03-28T01:00:23.970Z,1.30
2023-03-28T01:02:56.535Z,2.33
2023-03-28T01:05:27.892Z,1.73
2023-03-28T01:08:02.086Z,1.73
2023-03-28T01:10:32.288Z,2.03
2023-03-28T01:13:03.494Z,1.60
2023-03-28T01:15:32.701Z,1.50
2023-03-28T01:18:04.097Z,1.50
2023-03-28T01:21:08.055Z,1.30
2023-03-28T01:24:12.433Z,1.20
2023-03-28T01:26:54.249Z,1.67
2023-03-28T01:30:24.246Z,1.40
2023-03-28T01:33:35.207Z,1.53
2023-03-28T01:36:50.771Z,1.33
2023-03-28T01:39:35.013Z,1.20
2023-03-28T01:42:12.317Z,1.67
2023-03-28T01:44:51.760Z,1.73
2023-03-28T01:47:30.203Z,1.37
2023-03-28T01:50:08.861Z,1.30
2023-03-28T01:52:44.844Z,1.70
2023-03-28T01:55:21.126Z,1.60
2023-03-28T01:58:02.025Z,1.20
2023-03-28T02:00:34.746Z,1.50
2023-03-28T02:03:11.499Z,2.10
2023-03-28T02:05:42.855Z,1.33
2023-03-28T02:08:14.128Z,1.50
2023-03-28T02:10:43.577Z,1.83
2023-03-28T02:13:20.256Z,2.17
2023-03-28T02:15:52.381Z,1.30
2023-03-28T02:18:29.606Z,1.40
2023-03-28T02:21:01.980Z,1.80
2023-03-28T02:23:38.348Z,1.10
2023-03-28T02:26:06.363Z,1.00
2023-03-28T02:28:36.997Z,1.30
2023-03-28T02:31:07.214Z,1.50
2023-03-28T02:33:39.168Z,1.40
2023-03-28T02:36:29.939Z,1.40
2023-03-28T02:39:32.306Z,1.33
2023-03-28T02:42:30.910Z,1.40
2023-03-28T02:45:42.731Z,1.57
2023-03-28T02:48:25.194Z,1.60
2023-03-28T02:51:08.728Z,1.47
2023-03-28T02:53:45.482Z,1.47
2023-03-28T02:56:23.494Z,1.87
2023-03-28T02:58:56.963Z,1.80
2023-03-28T03:01:29.135Z,2.03
2023-03-28T03:03:58.308Z,1.70
2023-03-28T03:06:25.473Z,2.13
2023-03-28T03:08:52.341Z,1.67
2023-03-28T03:11:21.326Z,1.97
2023-03-28T03:13:48.176Z,2.10
2023-03-28T03:16:15.251Z,1.53
2023-03-28T03:18:42.174Z,1.57
2023-03-28T03:21:09.205Z,2.03
2023-03-28T03:23:36.625Z,2.33
2023-03-28T03:26:03.970Z,2.10
2023-03-28T03:28:32.198Z,1.07
2023-03-28T03:30:59.089Z,1.50
2023-03-28T03:33:26.242Z,1.80
2023-03-28T03:35:53.409Z,2.03
2023-03-28T03:38:20.517Z,2.03
2023-03-28T03:40:47.510Z,2.70
2023-03-28T03:43:14.422Z,1.57
2023-03-28T03:45:45.803Z,1.80
2023-03-28T03:48:12.795Z,1.53
2023-03-28T03:50:40.266Z,1.33
2023-03-28T03:53:07.125Z,2.17
2023-03-28T03:55:33.987Z,1.73
2023-03-28T03:58:01.410Z,1.50
2023-03-28T04:00:28.594Z,1.67
2023-03-28T04:02:56.881Z,1.63
2023-03-28T04:05:24.133Z,1.83
2023-03-28T04:07:51.124Z,1.90
2023-03-28T04:10:18.176Z,1.93
2023-03-28T04:12:45.052Z,1.60
2023-03-28T04:15:11.977Z,1.60
2023-03-28T04:17:41.177Z,2.20
2023-03-28T04:20:14.102Z,1.87
2023-03-28T04:22:46.372Z,1.70
2023-03-28T04:25:13.902Z,2.20
2023-03-28T04:27:46.984Z,2.07
2023-03-28T04:30:17.582Z,1.97
2023-03-28T04:32:44.644Z,3.07
2023-03-28T04:35:12.937Z,1.73
2023-03-28T04:37:40.266Z,2.30
2023-03-28T04:40:12.083Z,1.77
2023-03-28T04:42:39.368Z,2.30
2023-03-28T04:45:08.527Z,1.77
2023-03-28T04:47:39.888Z,1.70
2023-03-28T04:50:10.060Z,1.87
2023-03-28T04:52:38.727Z,2.10
2023-03-28T04:55:07.738Z,1.37
2023-03-28T04:57:36.992Z,1.87
2023-03-28T05:00:13.037Z,2.43
2023-03-28T05:02:40.012Z,2.17
2023-03-28T05:05:08.007Z,1.83
2023-03-28T05:07:35.546Z,2.20
2023-03-28T05:10:04.728Z,2.13
2023-03-28T05:12:31.596Z,2.30
2023-03-28T05:14:58.461Z,2.30
2023-03-28T05:17:25.716Z,2.60
2023-03-28T05:19:52.701Z,2.03
2023-03-28T05:22:19.548Z,2.20
2023-03-28T05:24:46.404Z,2.67
2023-03-28T05:27:14.790Z,2.50
2023-03-28T05:29:41.647Z,1.97
2023-03-28T05:32:13.115Z,2.07
2023-03-28T05:34:40.195Z,2.37
2023-03-28T05:37:07.070Z,1.90
2023-03-28T05:39:33.976Z,2.30
2023-03-28T05:42:00.862Z,2.10
2023-03-28T05:44:29.188Z,3.00
2023-03-28T05:46:56.067Z,2.33
2023-03-28T05:49:23.037Z,3.33
2023-03-28T05:51:49.991Z,2.27
2023-03-28T05:54:17.018Z,2.13
2023-03-28T05:56:44.211Z,2.33
2023-03-28T05:59:11.760Z,2.50
2023-03-28T06:01:42.007Z,2.83
2023-03-28T06:04:10.659Z,2.53
2023-03-28T06:06:37.685Z,2.67
2023-03-28T06:09:04.605Z,1.97
2023-03-28T06:11:31.905Z,1.57
2023-03-28T06:13:58.765Z,1.90
2023-03-28T06:16:31.175Z,1.93
2023-03-28T06:19:14.478Z,2.50
2023-03-28T06:21:44.526Z,2.23
2023-03-28T06:24:11.604Z,2.67
2023-03-28T06:26:38.990Z,2.00
2023-03-28T06:29:06.439Z,2.47
2023-03-28T06:31:34.110Z,2.57
2023-03-28T06:34:02.679Z,2.50
2023-03-28T06:36:29.682Z,2.50
2023-03-28T06:38:58.277Z,2.47
2023-03-28T06:41:25.340Z,2.27
2023-03-28T06:43:53.025Z,2.37
2023-03-28T06:46:20.460Z,2.73
2023-03-28T06:48:47.541Z,2.67
2023-03-28T06:51:15.845Z,2.60
2023-03-28T06:53:42.680Z,2.43
2023-03-28T06:56:11.278Z,2.87
2023-03-28T06:58:39.018Z,2.43
2023-03-28T07:01:06.757Z,2.90
2023-03-28T07:03:34.075Z,2.53
2023-03-28T07:06:05.859Z,3.03
2023-03-28T07:08:34.466Z,2.70
2023-03-28T07:11:01.962Z,2.80
2023-03-28T07:13:29.426Z,2.60
2023-03-28T07:16:01.661Z,2.60
2023-03-28T07:18:28.940Z,2.73
2023-03-28T07:21:03.881Z,3.30
2023-03-28T07:23:31.334Z,3.53
2023-03-28T07:25:59.565Z,2.60
2023-03-28T07:28:26.540Z,2.40
2023-03-28T07:30:54.219Z,2.90
2023-03-28T07:33:30.273Z,2.20
2023-03-28T07:36:06.578Z,2.30
2023-03-28T07:38:34.551Z,2.77
2023-03-28T07:41:03.681Z,2.10
2023-03-28T07:43:30.932Z,8.60
2023-03-28T07:46:02.112Z,6.37
2023-03-28T07:48:29.747Z,4.17
2023-03-28T07:50:57.080Z,3.23
2023-03-28T07:53:24.179Z,2.53
2023-03-28T07:55:54.861Z,2.50
2023-03-28T07:58:24.489Z,2.40
2023-03-28T08:00:51.616Z,2.33
2023-03-28T08:03:21.839Z,3.00
2023-03-28T08:05:52.166Z,4.50
2023-03-28T08:08:20.525Z,2.60
2023-03-28T08:10:51.163Z,2.40
2023-03-28T08:13:20.696Z,2.80
2023-03-28T08:15:53.008Z,4.47
2023-03-28T08:18:23.911Z,2.80
2023-03-28T08:20:58.321Z,2.67
2023-03-28T08:23:26.636Z,2.83
2023-03-28T08:26:04.606Z,2.90
2023-03-28T08:28:33.343Z,2.93
2023-03-28T08:31:02.685Z,2.77
2023-03-28T08:33:32.663Z,2.87
2023-03-28T08:36:02.539Z,2.97
2023-03-28T08:38:30.414Z,3.07
2023-03-28T08:41:14.653Z,2.90
2023-03-28T08:44:25.315Z,2.50
2023-03-28T08:46:58.860Z,2.90
2023-03-28T08:49:26.175Z,2.63
2023-03-28T08:51:59.161Z,3.03
2023-03-28T08:54:33.181Z,2.90
2023-03-28T08:57:04.851Z,2.80
2023-03-28T08:59:45.655Z,3.43
2023-03-28T09:02:21.288Z,2.47
2023-03-28T09:04:50.457Z,3.87
2023-03-28T09:07:32.541Z,3.43
2023-03-28T09:10:14.259Z,2.73
2023-03-28T09:12:57.484Z,3.13
2023-03-28T09:15:47.550Z,5.90
2023-03-28T09:18:48.263Z,3.00
2023-03-28T09:21:27.739Z,3.33
2023-03-28T09:24:13.384Z,2.87
2023-03-28T09:26:47.558Z,3.73
2023-03-28T09:29:19.148Z,3.07
2023-03-28T09:31:48.946Z,3.07
2023-03-28T09:34:22.935Z,3.07
2023-03-28T09:36:55.565Z,2.80
2023-03-28T09:39:35.603Z,2.23
2023-03-28T09:42:08.032Z,2.47
2023-03-28T09:44:54.193Z,2.43
2023-03-28T09:47:22.289Z,3.50
2023-03-28T09:49:56.392Z,3.77
2023-03-28T09:52:30.761Z,3.40
2023-03-28T09:55:00.365Z,2.83
2023-03-28T09:57:27.518Z,2.57
2023-03-28T09:59:58.567Z,2.70
2023-03-28T10:02:29.195Z,2.40
2023-03-28T10:04:58.181Z,2.57
2023-03-28T10:07:32.647Z,2.73
2023-03-28T10:10:17.695Z,2.27
2023-03-28T10:12:49.040Z,2.30
2023-03-28T10:15:41.427Z,2.47
2023-03-28T10:18:16.646Z,2.60
2023-03-28T10:20:45.466Z,2.20
2023-03-28T10:23:13.792Z,2.83
2023-03-28T10:25:44.345Z,2.27
2023-03-28T10:28:17.727Z,2.67
2023-03-28T10:30:55.299Z,2.60
2023-03-28T10:33:31.775Z,3.00
2023-03-28T10:36:03.187Z,2.20
2023-03-28T10:38:38.396Z,2.53
2023-03-28T10:41:12.083Z,2.40
2023-03-28T10:43:41.671Z,2.47
2023-03-28T10:46:17.464Z,2.30
2023-03-28T10:48:51.419Z,2.40
2023-03-28T10:51:22.299Z,2.53
2023-03-28T10:54:13.394Z,2.40
2023-03-28T10:56:50.292Z,3.73
2023-03-28T10:59:47.344Z,2.60
2023-03-28T11:02:45.132Z,2.60
2023-03-28T11:05:37.803Z,2.20
2023-03-28T11:08:35.849Z,2.92
2023-03-28T11:11:21.986Z,2.40
2023-03-28T11:13:59.620Z,2.13
2023-03-28T11:16:45.936Z,2.67
2023-03-28T11:19:31.434Z,2.70
2023-03-28T11:22:10.575Z,2.37
2023-03-28T11:24:53.488Z,2.50
2023-03-28T11:27:28.540Z,2.00
2023-03-28T11:30:02.674Z,2.50
2023-03-28T11:32:40.592Z,2.33
2023-03-28T11:35:22.077Z,2.60
2023-03-28T11:38:02.099Z,2.70
2023-03-28T11:40:49.356Z,2.03
2023-03-28T11:43:27.064Z,1.90
2023-03-28T11:46:03.470Z,2.43
2023-03-28T11:48:42.197Z,2.70
2023-03-28T11:51:17.005Z,5.27
2023-03-28T11:53:53.276Z,2.57
2023-03-28T11:56:40.397Z,1.90
2023-03-28T11:59:18.242Z,2.07
2023-03-28T12:01:50.391Z,2.00
2023-03-28T12:04:24.047Z,1.85
2023-03-28T12:07:05.564Z,2.00
2023-03-28T12:09:45.328Z,1.97
2023-03-28T12:12:21.371Z,1.70
2023-03-28T12:14:57.115Z,2.37
2023-03-28T12:17:30.973Z,2.03
2023-03-28T12:19:58.985Z,2.10
2023-03-28T12:22:34.481Z,2.27
2023-03-28T12:25:11.968Z,1.90
2023-03-28T12:27:55.685Z,2.27
2023-03-28T12:30:32.833Z,2.10
2023-03-28T12:33:15.876Z,1.70
2023-03-28T12:35:51.289Z,2.20
2023-03-28T12:38:32.293Z,2.10
2023-03-28T12:41:03.798Z,1.50
2023-03-28T12:43:44.141Z,2.20
2023-03-28T12:46:16.521Z,2.53
2023-03-28T12:48:52.311Z,2.00
2023-03-28T12:51:25.602Z,2.08
2023-03-28T12:54:08.920Z,2.40
2023-03-28T12:56:36.155Z,1.97
2023-03-28T12:59:51.540Z,2.20
2023-03-28T13:02:29.184Z,2.60
2023-03-28T13:05:04.844Z,2.27
2023-03-28T13:07:56.168Z,2.43
2023-03-28T13:10:35.650Z,2.20
2023-03-28T13:13:22.933Z,3.30
2023-03-28T13:16:02.856Z,2.37
2023-03-28T13:18:33.690Z,1.30
2023-03-28T13:21:05.284Z,2.03
2023-03-28T13:23:45.312Z,1.63
2023-03-28T13:26:13.417Z,1.70
2023-03-28T13:28:46.515Z,2.00
2023-03-28T13:31:24.385Z,2.70
2023-03-28T13:33:59.787Z,1.87
2023-03-28T13:36:32.290Z,1.80
2023-03-28T13:39:18.691Z,1.90
2023-03-28T13:42:00.816Z,2.00
2023-03-28T13:44:43.330Z,2.47
2023-03-28T13:47:32.451Z,1.90
2023-03-28T13:50:09.906Z,2.17
2023-03-28T13:52:38.665Z,1.73
2023-03-28T13:55:20.946Z,1.80
2023-03-28T13:57:48.883Z,2.10
2023-03-28T14:00:22.556Z,1.50
2023-03-28T14:02:53.567Z,1.80
2023-03-28T14:05:24.644Z,1.80
2023-03-28T14:07:55.243Z,1.53
2023-03-28T14:10:31.466Z,1.90
2023-03-28T14:13:04.198Z,1.70
2023-03-28T14:15:36.436Z,1.63
2023-03-28T14:18:07.680Z,2.07
2023-03-28T14:20:34.979Z,2.30
2023-03-28T14:23:02.302Z,1.80
2023-03-28T14:25:30.740Z,1.63
2023-03-28T14:28:08.513Z,2.87
2023-03-28T14:30:40.871Z,2.73
2023-03-28T14:33:21.043Z,1.80
2023-03-28T14:35:58.336Z,2.10
2023-03-28T14:38:32.072Z,2.40
2023-03-28T14:41:12.688Z,1.83
2023-03-28T14:43:40.573Z,2.07
2023-03-28T14:46:11.203Z,1.90
2023-03-28T14:48:42.260Z,1.80
2023-03-28T14:51:13.613Z,1.83
2023-03-28T14:53:46.434Z,2.03
2023-03-28T14:56:22.798Z,1.80
2023-03-28T14:58:52.750Z,2.37
2023-03-28T15:01:23.438Z,1.67
2023-03-28T15:03:58.657Z,2.17
2023-03-28T15:06:29.096Z,1.90
2023-03-28T15:09:00.442Z,2.37
2023-03-28T15:11:32.388Z,2.00
2023-03-28T15:14:05.395Z,1.80
2023-03-28T15:16:41.452Z,2.03
2023-03-28T15:19:35.720Z,1.97
2023-03-28T15:22:12.349Z,1.67
2023-03-28T15:24:41.220Z,1.90
2023-03-28T15:27:23.488Z,2.23
2023-03-28T15:29:51.740Z,1.80
2023-03-28T15:32:20.856Z,2.00
2023-03-28T15:35:00.493Z,4.47
2023-03-28T15:37:28.048Z,1.57
2023-03-28T15:40:22.843Z,2.20
2023-03-28T15:42:51.161Z,1.80
2023-03-28T15:45:38.811Z,2.20
2023-03-28T15:48:15.038Z,1.63
2023-03-28T15:50:51.009Z,2.17
2023-03-28T15:53:20.356Z,2.30
2023-03-28T15:55:49.972Z,1.53
2023-03-28T15:58:20.674Z,2.13
2023-03-28T16:00:49.685Z,1.67
2023-03-28T16:03:32.636Z,2.20
2023-03-28T16:06:31.691Z,2.00
2023-03-28T16:09:18.035Z,2.03
2023-03-28T16:11:47.169Z,2.33
2023-03-28T16:14:18.264Z,1.83
2023-03-28T16:16:46.337Z,2.17
2023-03-28T16:19:25.844Z,1.70
2023-03-28T16:21:54.592Z,2.50
2023-03-28T16:24:21.640Z,2.10
2023-03-28T16:26:48.980Z,1.97
2023-03-28T16:29:16.001Z,2.00
2023-03-28T16:31:43.584Z,1.40
2023-03-28T16:34:10.950Z,1.80
2023-03-28T16:36:38.601Z,2.10
2023-03-28T16:39:08.265Z,2.10
2023-03-28T16:41:36.020Z,2.63
2023-03-28T16:44:03.892Z,1.80
2023-03-28T16:46:31.382Z,1.80
2023-03-28T16:48:58.534Z,1.93
2023-03-28T16:51:26.042Z,2.20
2023-03-28T16:53:53.250Z,2.30
2023-03-28T16:56:25.545Z,1.80
2023-03-28T16:58:52.610Z,2.10
2023-03-28T17:01:20.113Z,2.07
2023-03-28T17:03:47.758Z,3.00
2023-03-28T17:06:16.648Z,2.00
2023-03-28T17:08:44.540Z,2.23
2023-03-28T17:11:12.550Z,2.23
2023-03-28T17:13:42.785Z,2.23
2023-03-28T17:16:11.195Z,2.87
2023-03-28T17:18:38.313Z,2.47
2023-03-28T17:21:09.445Z,2.27
2023-03-28T17:23:39.175Z,2.30
2023-03-28T17:26:09.773Z,2.70
2023-03-28T17:28:39.199Z,2.07
2023-03-28T17:31:10.640Z,2.20
2023-03-28T17:33:38.078Z,2.50
2023-03-28T17:36:20.970Z,2.50
2023-03-28T17:38:49.706Z,2.10
2023-03-28T17:41:17.356Z,2.20
2023-03-28T17:43:44.935Z,2.30
2023-03-28T17:46:13.311Z,2.20
2023-03-28T17:48:41.692Z,2.30
2023-03-28T17:51:10.393Z,2.70
2023-03-28T17:53:39.612Z,2.00
2023-03-28T17:56:07.092Z,2.10
2023-03-28T17:58:34.371Z,2.43
2023-03-28T18:01:01.511Z,2.77
2023-03-28T18:03:30.173Z,2.50
2023-03-28T18:06:00.555Z,2.77
2023-03-28T18:08:28.917Z,3.13
2023-03-28T18:11:00.774Z,2.47
2023-03-28T18:13:28.138Z,2.80
2023-03-28T18:15:55.469Z,2.57
2023-03-28T18:18:22.572Z,2.60
2023-03-28T18:20:51.166Z,2.90
2023-03-28T18:23:18.350Z,3.00
2023-03-28T18:25:45.607Z,2.77
2023-03-28T18:28:12.716Z,3.03
2023-03-28T18:30:41.927Z,3.07
2023-03-28T18:33:11.544Z,3.27
2023-03-28T18:35:38.752Z,3.23
2023-03-28T18:38:07.490Z,3.13
2023-03-28T18:40:34.476Z,3.67
2023-03-28T18:43:01.517Z,3.97
2023-03-28T18:45:28.726Z,3.60
2023-03-28T18:47:55.770Z,3.47
2023-03-28T18:50:23.233Z,4.00
2023-03-28T18:52:50.158Z,4.13
2023-03-28T18:55:19.133Z,3.97
2023-03-28T18:57:46.347Z,4.30
2023-03-28T19:00:17.553Z,3.50
2023-03-28T19:02:45.362Z,3.40
2023-03-28T19:05:13.255Z,3.27
2023-03-28T19:07:40.241Z,3.53
2023-03-28T19:10:09.888Z,4.13
2023-03-28T19:12:39.430Z,3.70
2023-03-28T19:15:10.569Z,3.53
2023-03-28T19:17:39.911Z,4.03
2023-03-28T19:20:13.194Z,3.90
2023-03-28T19:22:40.433Z,3.70
2023-03-28T19:25:09.734Z,3.57
2023-03-28T19:27:38.601Z,3.83
2023-03-28T19:30:07.993Z,3.67
2023-03-28T19:32:35.163Z,4.20
2023-03-28T19:35:02.237Z,3.87
2023-03-28T19:37:29.235Z,4.57
2023-03-28T19:39:58.983Z,4.50
2023-03-28T19:42:26.174Z,3.50
2023-03-28T19:44:54.589Z,4.27
2023-03-28T19:47:21.697Z,4.30
2023-03-28T19:49:55.863Z,4.50
2023-03-28T19:52:31.053Z,4.27
2023-03-28T19:54:58.378Z,4.13
2023-03-28T19:57:25.454Z,3.80
2023-03-28T19:59:53.941Z,4.57
2023-03-28T20:02:20.968Z,3.97
2023-03-28T20:04:48.015Z,4.67
2023-03-28T20:07:15.417Z,4.33
2023-03-28T20:09:48.761Z,3.97
2023-03-28T20:12:16.586Z,3.13
2023-03-28T20:14:44.618Z,3.60
2023-03-28T20:17:13.290Z,4.30
2023-03-28T20:19:40.353Z,4.07
2023-03-28T20:22:07.888Z,3.13
2023-03-28T20:24:34.983Z,3.40
2023-03-28T20:27:02.228Z,3.53
2023-03-28T20:29:29.840Z,3.40
2023-03-28T20:31:56.868Z,3.77
2023-03-28T20:34:25.489Z,3.63
2023-03-28T20:36:54.032Z,3.50
2023-03-28T20:39:22.510Z,2.93
2023-03-28T20:41:49.538Z,3.10
2023-03-28T20:44:19.741Z,2.80
2023-03-28T20:46:48.791Z,3.13
2023-03-28T20:49:17.852Z,2.97
2023-03-28T20:51:46.427Z,3.40
2023-03-28T20:54:13.884Z,3.07
2023-03-28T20:56:41.147Z,3.20
2023-03-28T20:59:08.237Z,3.00
2023-03-28T21:01:39.390Z,2.60
2023-03-28T21:04:07.092Z,3.07
2023-03-28T21:06:39.585Z,3.23
2023-03-28T21:09:10.880Z,3.00
2023-03-28T21:11:39.727Z,2.83
2023-03-28T21:14:10.411Z,2.90
2023-03-28T21:16:37.638Z,3.00
2023-03-28T21:19:05.374Z,3.03
2023-03-28T21:21:33.914Z,3.13
2023-03-28T21:24:02.324Z,2.80
2023-03-28T21:26:32.096Z,3.00
2023-03-28T21:28:59.881Z,2.57
2023-03-28T21:31:29.318Z,2.20
2023-03-28T21:33:58.537Z,3.40
2023-03-28T21:36:27.745Z,3.53
2023-03-28T21:38:55.933Z,3.47
2023-03-28T21:41:23.776Z,3.37
2023-03-28T21:43:53.613Z,3.40
2023-03-28T21:46:21.036Z,3.23
2023-03-28T21:48:48.619Z,3.17
2023-03-28T21:51:16.551Z,3.20
2023-03-28T21:53:43.541Z,3.00
2023-03-28T21:56:12.652Z,2.80
2023-03-28T21:58:39.954Z,3.20
2023-03-28T22:01:11.297Z,3.27
2023-03-28T22:03:38.528Z,3.27
2023-03-28T22:06:06.687Z,2.80
2023-03-28T22:08:33.751Z,2.60
2023-03-28T22:11:03.235Z,3.17
2023-03-28T22:13:30.558Z,3.00
2023-03-28T22:15:59.650Z,2.73
2023-03-28T22:18:30.449Z,2.73
2023-03-28T22:20:57.608Z,2.60
2023-03-28T22:23:24.616Z,2.80
2023-03-28T22:25:52.814Z,2.50
2023-03-28T22:28:23.956Z,2.93
2023-03-28T22:30:55.033Z,2.60
2023-03-28T22:33:23.357Z,2.83
2023-03-28T22:35:52.411Z,2.80
2023-03-28T22:38:19.517Z,2.73
2023-03-28T22:40:47.338Z,3.10
2023-03-28T22:43:14.836Z,2.90
2023-03-28T22:45:42.820Z,2.77
2023-03-28T22:48:15.976Z,2.60
2023-03-28T22:50:45.472Z,2.77
2023-03-28T22:53:15.057Z,2.60
2023-03-28T22:55:43.996Z,2.87
2023-03-28T22:58:12.419Z,2.53
2023-03-28T23:00:39.430Z,2.53
2023-03-28T23:03:08.000Z,3.07
2023-03-28T23:05:35.591Z,2.80
2023-03-28T23:08:02.592Z,3.07
2023-03-28T23:10:32.016Z,2.40
2023-03-28T23:13:00.122Z,2.97
2023-03-28T23:15:27.693Z,2.70
2023-03-28T23:17:55.815Z,2.57
2023-03-28T23:20:22.766Z,2.90
2023-03-28T23:22:49.941Z,2.80
2023-03-28T23:25:19.063Z,3.17
2023-03-28T23:27:47.569Z,2.57
2023-03-28T23:30:16.578Z,3.03
2023-03-28T23:32:43.967Z,3.30
2023-03-28T23:35:11.808Z,3.03
2023-03-28T23:37:39.506Z,3.20
2023-03-28T23:40:13.864Z,3.23
2023-03-28T23:42:43.524Z,3.27
2023-03-28T23:45:14.608Z,2.80
2023-03-28T23:47:42.714Z,3.03
2023-03-28T23:50:11.047Z,3.10
2023-03-28T23:52:37.990Z,3.23
2023-03-28T23:55:07.810Z,2.80
2023-03-28T23:57:35.026Z,2.87
